createdAt,value
2017-09-18T00:00:08.107Z,93.20
2017-09-18T00:02:35.649Z,93.10
2017-09-18T00:05:03.205Z,93.10
2017-09-18T00:07:30.734Z,92.90
2017-09-18T00:09:58.246Z,92.90
2017-09-18T00:12:26.971Z,92.90
2017-09-18T00:14:55.289Z,92.90
2017-09-18T00:17:24.476Z,92.70
2017-09-18T00:19:52.204Z,92.70
2017-09-18T00:22:19.734Z,92.50
2017-09-18T00:24:47.228Z,92.40
2017-09-18T00:27:18.623Z,92.20
2017-09-18T00:29:46.204Z,92.00
2017-09-18T00:32:14.647Z,92.00
2017-09-18T00:34:42.135Z,92.00
2017-09-18T00:37:09.666Z,91.70
2017-09-18T00:39:38.139Z,91.80
2017-09-18T00:42:09.177Z,91.80
2017-09-18T00:44:36.683Z,91.20
2017-09-18T00:47:04.420Z,91.10
2017-09-18T00:49:31.965Z,91.20
2017-09-18T00:51:59.879Z,91.20
2017-09-18T00:54:28.695Z,91.70
2017-09-18T00:57:00.980Z,92.20
2017-09-18T00:59:28.756Z,92.20
2017-09-18T01:01:56.284Z,92.20
2017-09-18T01:04:24.643Z,92.20
2017-09-18T01:06:52.938Z,92.20
2017-09-18T01:09:20.431Z,92.40
2017-09-18T01:11:47.963Z,92.80
2017-09-18T01:14:15.467Z,92.90
2017-09-18T01:16:42.971Z,92.90
2017-09-18T01:19:10.507Z,93.00
2017-09-18T01:21:38.003Z,93.00
2017-09-18T01:24:06.275Z,92.70
2017-09-18T01:26:34.132Z,93.00
2017-09-18T01:29:08.884Z,92.80
2017-09-18T01:31:37.208Z,93.20
2017-09-18T01:34:04.720Z,93.20
2017-09-18T01:36:32.219Z,93.20
2017-09-18T01:38:59.771Z,92.90
2017-09-18T01:41:27.267Z,93.40
2017-09-18T01:44:00.600Z,94.00
2017-09-18T01:46:28.149Z,94.00
2017-09-18T01:48:56.615Z,94.30
2017-09-18T01:51:24.159Z,94.30
2017-09-18T01:53:52.568Z,94.60
2017-09-18T01:56:20.229Z,94.60
2017-09-18T01:58:47.732Z,94.80
2017-09-18T02:01:16.183Z,94.70
2017-09-18T02:03:44.083Z,94.80
2017-09-18T02:06:11.611Z,94.40
2017-09-18T02:08:39.119Z,94.70
2017-09-18T02:11:07.416Z,94.80
2017-09-18T02:13:34.987Z,94.80
2017-09-18T02:16:02.598Z,94.90
2017-09-18T02:18:30.092Z,94.80
2017-09-18T02:20:57.774Z,95.00
2017-09-18T02:23:25.927Z,95.10
2017-09-18T02:25:54.351Z,95.00
2017-09-18T02:28:21.880Z,95.00
2017-09-18T02:30:50.351Z,94.90
2017-09-18T02:33:18.684Z,94.70
2017-09-18T02:35:46.554Z,94.50
2017-09-18T02:38:14.048Z,94.70
2017-09-18T02:40:41.584Z,94.70
2017-09-18T02:43:09.898Z,94.90
2017-09-18T02:45:38.053Z,94.70
2017-09-18T02:48:05.554Z,94.90
2017-09-18T02:50:33.092Z,94.90
2017-09-18T02:53:00.662Z,94.90
2017-09-18T02:55:28.307Z,94.90
2017-09-18T02:57:56.143Z,94.90
2017-09-18T03:00:23.643Z,95.00
2017-09-18T03:02:51.524Z,95.10
2017-09-18T03:05:19.213Z,95.10
2017-09-18T03:07:46.719Z,95.20
2017-09-18T03:10:14.247Z,95.30
2017-09-18T03:12:42.524Z,95.10
2017-09-18T03:15:14.917Z,95.10
2017-09-18T03:17:42.455Z,95.10
2017-09-18T03:20:10.021Z,95.20
2017-09-18T03:22:37.527Z,95.20
2017-09-18T03:25:06.131Z,95.20
2017-09-18T03:27:33.662Z,95.10
2017-09-18T03:30:05.172Z,95.30
2017-09-18T03:32:33.475Z,95.30
2017-09-18T03:35:00.975Z,95.30
2017-09-18T03:37:28.492Z,95.60
2017-09-18T03:39:56.027Z,95.40
2017-09-18T03:42:23.536Z,95.40
2017-09-18T03:44:53.820Z,95.00
2017-09-18T03:47:21.369Z,94.90
2017-09-18T03:49:49.675Z,94.70
2017-09-18T03:52:17.172Z,94.60
2017-09-18T03:54:44.943Z,94.80
2017-09-18T03:57:12.738Z,94.90
2017-09-18T03:59:40.247Z,95.30
2017-09-18T04:02:07.760Z,95.10
2017-09-18T04:04:35.328Z,95.20
2017-09-18T04:07:03.963Z,95.20
2017-09-18T04:09:31.479Z,95.10
2017-09-18T04:11:59.820Z,95.00
2017-09-18T04:14:28.060Z,94.90
2017-09-18T04:16:55.578Z,94.90
2017-09-18T04:19:23.105Z,95.10
2017-09-18T04:21:50.650Z,95.00
2017-09-18T04:24:18.158Z,95.00
2017-09-18T04:26:45.996Z,95.00
2017-09-18T04:29:13.893Z,95.20
2017-09-18T04:31:42.043Z,95.10
2017-09-18T04:34:10.316Z,94.80
2017-09-18T04:36:38.218Z,94.80
2017-09-18T04:39:06.543Z,94.80
2017-09-18T04:41:34.864Z,95.10
2017-09-18T04:44:02.426Z,95.10
2017-09-18T04:46:29.922Z,95.10
2017-09-18T04:48:58.229Z,94.90
2017-09-18T04:51:26.880Z,94.90
2017-09-18T04:53:54.380Z,95.10
2017-09-18T04:56:22.663Z,95.10
2017-09-18T04:58:50.760Z,95.10
2017-09-18T05:01:18.264Z,95.10
2017-09-18T05:03:46.539Z,94.90
2017-09-18T05:06:14.071Z,94.80
2017-09-18T05:08:41.885Z,95.00
2017-09-18T05:11:10.113Z,94.80
2017-09-18T05:13:37.625Z,94.60
2017-09-18T05:16:05.143Z,94.40
2017-09-18T05:18:32.651Z,94.70
2017-09-18T05:21:00.189Z,94.80
2017-09-18T05:23:27.729Z,94.70
2017-09-18T05:25:55.407Z,94.70
2017-09-18T05:28:23.348Z,94.80
2017-09-18T05:30:51.097Z,94.80
2017-09-18T05:33:18.591Z,94.90
2017-09-18T05:35:46.847Z,94.80
2017-09-18T05:38:14.396Z,94.80
2017-09-18T05:40:42.918Z,94.70
2017-09-18T05:43:10.431Z,94.60
2017-09-18T05:45:38.262Z,94.40
2017-09-18T05:48:09.106Z,94.10
2017-09-18T05:50:37.425Z,94.00
2017-09-18T05:53:05.051Z,93.70
2017-09-18T05:55:32.580Z,94.40
2017-09-18T05:58:00.408Z,94.30
2017-09-18T06:00:27.975Z,94.50
2017-09-18T06:02:56.552Z,94.80
2017-09-18T06:05:24.107Z,94.50
2017-09-18T06:07:51.648Z,94.60
2017-09-18T06:10:19.147Z,94.10
2017-09-18T06:12:47.459Z,94.10
2017-09-18T06:15:15.339Z,94.10
2017-09-18T06:17:55.212Z,94.20
2017-09-18T06:20:22.806Z,94.40
2017-09-18T06:22:50.348Z,94.70
2017-09-18T06:25:17.872Z,94.30
2017-09-18T06:27:45.399Z,94.60
2017-09-18T06:30:12.922Z,94.10
2017-09-18T06:32:49.128Z,94.20
2017-09-18T06:35:18.086Z,94.20
2017-09-18T06:37:45.624Z,94.20
2017-09-18T06:40:13.164Z,93.90
2017-09-18T06:42:40.711Z,93.80
2017-09-18T06:45:08.223Z,93.80
2017-09-18T06:47:36.651Z,93.80
2017-09-18T06:50:07.823Z,93.60
2017-09-18T06:52:35.498Z,93.30
2017-09-18T06:55:03.051Z,93.30
2017-09-18T06:57:30.668Z,92.80
2017-09-18T06:59:58.171Z,92.70
2017-09-18T07:02:26.240Z,93.00
2017-09-18T07:04:54.315Z,92.90
2017-09-18T07:07:23.333Z,92.60
2017-09-18T07:09:50.894Z,92.60
2017-09-18T07:12:18.465Z,92.30
2017-09-18T07:14:46.283Z,92.60
2017-09-18T07:17:15.484Z,92.50
2017-09-18T07:19:46.491Z,92.50
2017-09-18T07:22:14.002Z,92.50
2017-09-18T07:24:42.327Z,92.20
2017-09-18T07:27:10.943Z,92.20
2017-09-18T07:29:38.520Z,92.30
2017-09-18T07:32:06.820Z,91.40
2017-09-18T07:34:35.508Z,91.50
2017-09-18T07:37:03.043Z,91.40
2017-09-18T07:39:31.318Z,92.50
2017-09-18T07:41:59.825Z,92.50
2017-09-18T07:44:27.404Z,92.60
2017-09-18T07:46:54.944Z,91.20
2017-09-18T07:49:22.484Z,91.80
2017-09-18T07:51:50.010Z,91.90
2017-09-18T07:54:19.288Z,91.60
2017-09-18T07:56:46.833Z,91.60
2017-09-18T07:59:14.394Z,91.70
2017-09-18T08:01:42.983Z,91.50
2017-09-18T08:04:10.487Z,91.40
2017-09-18T08:06:38.917Z,91.30
2017-09-18T08:09:06.487Z,91.20
2017-09-18T08:11:34.036Z,91.00
2017-09-18T08:14:02.491Z,91.60
2017-09-18T08:16:30.196Z,90.70
2017-09-18T08:18:57.987Z,89.90
2017-09-18T08:21:25.553Z,87.70
2017-09-18T08:23:53.079Z,87.30
2017-09-18T08:26:20.643Z,87.00
2017-09-18T08:28:48.163Z,88.60
2017-09-18T08:31:16.827Z,87.30
2017-09-18T08:33:44.338Z,85.90
2017-09-18T08:36:11.878Z,86.00
2017-09-18T08:38:39.390Z,87.50
2017-09-18T08:41:06.931Z,87.60
2017-09-18T08:43:35.370Z,88.60
2017-09-18T08:46:02.916Z,89.40
2017-09-18T08:48:30.423Z,87.40
2017-09-18T08:50:57.973Z,88.00
2017-09-18T08:53:25.499Z,87.50
2017-09-18T08:55:53.335Z,87.70
2017-09-18T08:58:21.607Z,86.60
2017-09-18T09:00:49.183Z,86.70
2017-09-18T09:03:17.528Z,83.90
2017-09-18T09:05:45.187Z,83.90
2017-09-18T09:08:15.141Z,86.90
2017-09-18T09:10:42.708Z,86.90
2017-09-18T09:13:11.148Z,86.20
2017-09-18T09:15:38.661Z,82.60
2017-09-18T09:18:06.191Z,84.50
2017-09-18T09:20:37.367Z,83.90
2017-09-18T09:23:04.939Z,84.40
2017-09-18T09:25:33.384Z,82.70
2017-09-18T09:28:00.893Z,83.80
2017-09-18T09:30:28.398Z,81.20
2017-09-18T09:32:56.011Z,82.10
2017-09-18T09:35:23.544Z,81.50
2017-09-18T09:37:51.063Z,81.80
2017-09-18T09:40:19.364Z,81.20
2017-09-18T09:42:47.804Z,83.00
2017-09-18T09:45:15.618Z,82.90
2017-09-18T09:47:43.146Z,81.80
2017-09-18T09:50:11.711Z,82.00
2017-09-18T09:52:39.234Z,80.60
2017-09-18T09:55:06.776Z,79.80
2017-09-18T09:57:34.391Z,78.90
2017-09-18T10:00:01.899Z,78.80
2017-09-18T10:02:29.923Z,77.80
2017-09-18T10:04:58.375Z,76.60
2017-09-18T10:07:25.928Z,77.60
2017-09-18T10:09:53.536Z,77.60
2017-09-18T10:12:21.846Z,78.00
2017-09-18T10:14:49.496Z,77.90
2017-09-18T10:17:17.004Z,79.00
2017-09-18T10:19:44.553Z,76.40
2017-09-18T10:22:12.060Z,75.60
2017-09-18T10:24:40.370Z,76.70
2017-09-18T10:27:07.926Z,76.60
2017-09-18T10:29:35.440Z,76.30
2017-09-18T10:32:03.459Z,75.90
2017-09-18T10:34:30.992Z,76.10
2017-09-18T10:37:09.979Z,73.80
2017-09-18T10:39:37.540Z,74.00
2017-09-18T10:42:05.840Z,73.40
2017-09-18T10:44:33.371Z,73.40
2017-09-18T10:47:01.087Z,72.70
2017-09-18T10:49:28.936Z,73.30
2017-09-18T10:51:56.463Z,70.70
2017-09-18T10:54:23.963Z,71.10
2017-09-18T10:56:51.638Z,71.30
2017-09-18T10:59:19.144Z,70.80
2017-09-18T11:01:46.647Z,70.80
2017-09-18T11:04:14.211Z,70.00
2017-09-18T11:06:41.775Z,68.40
2017-09-18T11:09:09.863Z,65.70
2017-09-18T11:11:37.490Z,65.50
2017-09-18T11:14:05.027Z,67.00
2017-09-18T11:16:33.298Z,69.70
2017-09-18T11:19:02.032Z,69.60
2017-09-18T11:21:29.552Z,69.70
2017-09-18T11:23:57.964Z,70.10
2017-09-18T11:26:26.428Z,70.10
2017-09-18T11:28:54.277Z,70.50
2017-09-18T11:31:21.802Z,70.80
2017-09-18T11:33:49.824Z,68.10
2017-09-18T11:36:17.351Z,68.20
2017-09-18T11:38:46.255Z,67.60
2017-09-18T11:41:13.799Z,67.60
2017-09-18T11:43:41.310Z,67.70
2017-09-18T11:46:08.834Z,69.70
2017-09-18T11:48:36.339Z,67.50
2017-09-18T11:51:04.886Z,64.60
2017-09-18T11:53:35.902Z,63.40
2017-09-18T11:56:04.217Z,64.00
2017-09-18T11:58:31.765Z,63.90
2017-09-18T12:00:59.369Z,62.70
2017-09-18T12:03:27.287Z,63.30
2017-09-18T12:05:54.828Z,61.40
2017-09-18T12:08:23.103Z,66.90
2017-09-18T12:10:50.635Z,66.90
2017-09-18T12:13:18.844Z,66.80
2017-09-18T12:15:46.335Z,67.70
2017-09-18T12:18:13.840Z,67.30
2017-09-18T12:20:41.399Z,67.60
2017-09-18T12:23:08.896Z,66.90
2017-09-18T12:25:36.399Z,66.20
2017-09-18T12:28:03.949Z,65.00
2017-09-18T12:30:32.987Z,64.30
2017-09-18T12:33:00.487Z,64.20
2017-09-18T12:35:28.179Z,63.90
2017-09-18T12:37:55.739Z,61.40
2017-09-18T12:40:23.284Z,61.10
2017-09-18T12:42:51.576Z,59.50
2017-09-18T12:45:19.162Z,59.90
2017-09-18T12:47:46.656Z,57.30
2017-09-18T12:50:14.198Z,59.90
2017-09-18T12:52:41.751Z,58.30
2017-09-18T12:55:09.684Z,59.80
2017-09-18T12:57:37.203Z,58.60
2017-09-18T13:00:05.684Z,56.30
2017-09-18T13:02:33.207Z,56.30
2017-09-18T13:05:00.787Z,54.70
2017-09-18T13:07:28.337Z,55.10
2017-09-18T13:09:55.846Z,55.00
2017-09-18T13:12:24.299Z,54.30
2017-09-18T13:14:52.027Z,55.50
2017-09-18T13:17:19.869Z,56.20
2017-09-18T13:19:47.383Z,56.80
2017-09-18T13:22:14.920Z,56.80
2017-09-18T13:24:43.235Z,57.20
2017-09-18T13:27:15.748Z,57.80
2017-09-18T13:29:43.807Z,57.70
2017-09-18T13:32:12.105Z,58.00
2017-09-18T13:34:40.418Z,57.90
2017-09-18T13:37:09.424Z,57.90
2017-09-18T13:39:40.865Z,57.30
2017-09-18T13:42:09.851Z,57.70
2017-09-18T13:44:37.383Z,57.70
2017-09-18T13:47:05.699Z,56.90
2017-09-18T13:49:33.464Z,56.90
2017-09-18T13:52:01.224Z,56.20
2017-09-18T13:54:28.773Z,56.00
2017-09-18T13:56:56.288Z,55.30
2017-09-18T13:59:24.605Z,56.30
2017-09-18T14:01:53.144Z,56.30
2017-09-18T14:04:20.660Z,53.70
2017-09-18T14:06:48.711Z,52.90
2017-09-18T14:09:17.139Z,53.50
2017-09-18T14:11:44.687Z,52.90
2017-09-18T14:14:12.194Z,53.80
2017-09-18T14:16:39.822Z,52.70
2017-09-18T14:19:07.390Z,53.70
2017-09-18T14:21:34.951Z,53.30
2017-09-18T14:24:02.447Z,53.20
2017-09-18T14:26:29.944Z,52.90
2017-09-18T14:28:57.522Z,52.10
2017-09-18T14:31:26.670Z,52.10
2017-09-18T14:33:54.180Z,52.10
2017-09-18T14:36:21.893Z,52.40
2017-09-18T14:38:51.679Z,51.10
2017-09-18T14:41:19.323Z,51.30
2017-09-18T14:43:47.952Z,51.30
2017-09-18T14:46:16.299Z,51.30
2017-09-18T14:48:43.801Z,50.50
2017-09-18T14:51:11.323Z,52.40
2017-09-18T14:53:40.549Z,52.00
2017-09-18T14:56:08.064Z,51.90
2017-09-18T14:58:36.367Z,52.50
2017-09-18T15:01:04.167Z,52.50
2017-09-18T15:03:31.710Z,52.20
2017-09-18T15:05:59.210Z,52.80
2017-09-18T15:08:27.116Z,52.70
2017-09-18T15:10:54.631Z,52.20
2017-09-18T15:13:22.149Z,51.20
2017-09-18T15:15:49.761Z,52.20
2017-09-18T15:18:18.805Z,53.30
2017-09-18T15:20:46.380Z,53.30
2017-09-18T15:23:13.894Z,53.40
2017-09-18T15:25:41.395Z,53.90
2017-09-18T15:28:09.216Z,55.10
2017-09-18T15:30:37.888Z,53.80
2017-09-18T15:33:05.440Z,53.80
2017-09-18T15:35:33.731Z,55.60
2017-09-18T15:38:02.740Z,56.00
2017-09-18T15:40:30.455Z,56.00
2017-09-18T15:43:01.346Z,56.10
2017-09-18T15:45:29.135Z,56.00
2017-09-18T15:47:56.924Z,57.30
2017-09-18T15:50:24.636Z,56.90
2017-09-18T15:52:52.188Z,56.50
2017-09-18T15:55:19.755Z,56.00
2017-09-18T15:57:47.255Z,56.60
2017-09-18T16:00:15.984Z,57.10
2017-09-18T16:02:43.482Z,56.40
2017-09-18T16:05:11.233Z,56.30
2017-09-18T16:07:38.997Z,55.60
2017-09-18T16:10:06.504Z,56.80
2017-09-18T16:12:38.523Z,57.80
2017-09-18T16:15:06.051Z,57.70
2017-09-18T16:17:34.399Z,61.40
2017-09-18T16:20:02.068Z,61.40
2017-09-18T16:22:30.090Z,63.20
2017-09-18T16:24:57.915Z,64.20
2017-09-18T16:27:25.468Z,65.80
2017-09-18T16:29:52.983Z,66.40
2017-09-18T16:32:20.928Z,68.20
2017-09-18T16:34:48.846Z,68.00
2017-09-18T16:37:16.352Z,68.90
2017-09-18T16:39:43.874Z,69.60
2017-09-18T16:42:11.612Z,70.00
2017-09-18T16:44:39.160Z,70.50
2017-09-18T16:47:06.668Z,70.60
2017-09-18T16:49:34.991Z,72.40
2017-09-18T16:52:03.050Z,72.30
2017-09-18T16:54:30.559Z,73.00
2017-09-18T16:56:58.120Z,73.70
2017-09-18T16:59:27.471Z,74.70
2017-09-18T17:01:55.099Z,74.60
2017-09-18T17:04:23.379Z,75.80
2017-09-18T17:06:50.882Z,75.70
2017-09-18T17:09:18.600Z,76.40
2017-09-18T17:11:46.643Z,77.00
2017-09-18T17:14:14.160Z,77.90
2017-09-18T17:16:41.923Z,78.40
2017-09-18T17:19:09.451Z,79.10
2017-09-18T17:21:37.741Z,81.10
2017-09-18T17:24:05.494Z,81.00
2017-09-18T17:26:33.411Z,81.80
2017-09-18T17:29:00.924Z,82.50
2017-09-18T17:31:28.478Z,83.70
2017-09-18T17:33:56.786Z,84.50
2017-09-18T17:36:24.371Z,84.40
2017-09-18T17:38:51.899Z,85.40
2017-09-18T17:41:19.443Z,86.00
2017-09-18T17:43:46.964Z,86.60
2017-09-18T17:46:14.514Z,86.70
2017-09-18T17:48:42.092Z,87.70
2017-09-18T17:51:09.596Z,87.90
2017-09-18T17:53:37.131Z,87.80
2017-09-18T17:56:04.690Z,88.70
2017-09-18T17:58:33.275Z,89.20
2017-09-18T18:01:01.011Z,89.40
2017-09-18T18:03:29.763Z,89.60
2017-09-18T18:05:57.361Z,90.00
2017-09-18T18:08:25.219Z,90.00
2017-09-18T18:10:52.818Z,90.30
2017-09-18T18:13:20.488Z,90.40
2017-09-18T18:15:48.019Z,90.50
2017-09-18T18:18:17.219Z,90.90
2017-09-18T18:20:44.751Z,90.80
2017-09-18T18:23:12.248Z,90.80
2017-09-18T18:25:42.444Z,91.10
2017-09-18T18:28:09.940Z,91.10
2017-09-18T18:30:37.484Z,91.10
2017-09-18T18:33:04.987Z,91.10
2017-09-18T18:35:32.778Z,91.60
2017-09-18T18:38:01.051Z,91.80
2017-09-18T18:40:28.560Z,92.20
2017-09-18T18:42:56.092Z,92.60
2017-09-18T18:45:23.587Z,92.60
2017-09-18T18:47:51.086Z,92.90
2017-09-18T18:50:18.619Z,93.10
2017-09-18T18:52:46.389Z,93.20
2017-09-18T18:55:14.982Z,93.50
2017-09-18T18:57:42.527Z,93.40
2017-09-18T19:00:10.043Z,93.50
2017-09-18T19:02:37.731Z,93.60
2017-09-18T19:05:05.271Z,93.50
2017-09-18T19:07:33.834Z,93.70
2017-09-18T19:10:02.150Z,93.70
2017-09-18T19:12:29.667Z,93.70
2017-09-18T19:15:01.970Z,93.50
2017-09-18T19:17:29.680Z,93.50
2017-09-18T19:19:57.217Z,93.30
2017-09-18T19:22:24.805Z,93.60
2017-09-18T19:24:53.330Z,93.80
2017-09-18T19:27:20.878Z,94.00
2017-09-18T19:29:48.447Z,94.10
2017-09-18T19:32:15.943Z,94.20
2017-09-18T19:34:43.463Z,94.30
2017-09-18T19:37:11.228Z,94.60
2017-09-18T19:39:38.735Z,94.60
2017-09-18T19:42:07.159Z,94.60
2017-09-18T19:44:35.255Z,94.60
2017-09-18T19:47:02.839Z,94.50
2017-09-18T19:49:30.699Z,94.30
2017-09-18T19:51:58.540Z,94.50
2017-09-18T19:54:26.073Z,94.70
2017-09-18T19:56:53.599Z,94.60
2017-09-18T19:59:21.149Z,94.20
2017-09-18T20:01:52.352Z,94.40
2017-09-18T20:04:21.567Z,94.60
2017-09-18T20:06:49.095Z,94.60
2017-09-18T20:09:17.395Z,94.80
2017-09-18T20:11:46.475Z,94.90
2017-09-18T20:14:14.104Z,94.90
2017-09-18T20:16:44.983Z,95.10
2017-09-18T20:19:12.530Z,95.20
2017-09-18T20:21:40.360Z,95.20
2017-09-18T20:24:07.854Z,94.90
2017-09-18T20:26:35.705Z,94.70
2017-09-18T20:29:03.417Z,94.60
2017-09-18T20:31:35.019Z,94.40
2017-09-18T20:34:03.279Z,94.60
2017-09-18T20:36:31.607Z,94.60
2017-09-18T20:39:00.034Z,94.50
2017-09-18T20:41:27.540Z,94.50
2017-09-18T20:43:55.087Z,94.50
2017-09-18T20:46:22.680Z,94.50
2017-09-18T20:48:50.223Z,94.50
2017-09-18T20:51:17.712Z,94.70
2017-09-18T20:53:45.238Z,94.50
2017-09-18T20:56:13.655Z,94.30
2017-09-18T20:58:41.189Z,94.10
2017-09-18T21:01:08.692Z,93.90
2017-09-18T21:03:36.231Z,94.00
2017-09-18T21:06:03.787Z,94.00
2017-09-18T21:08:31.296Z,93.90
2017-09-18T21:10:58.799Z,93.90
2017-09-18T21:13:26.340Z,94.00
2017-09-18T21:15:53.871Z,94.20
2017-09-18T21:18:23.388Z,94.20
2017-09-18T21:20:50.937Z,94.30
2017-09-18T21:23:18.451Z,94.40
2017-09-18T21:25:47.272Z,94.40
2017-09-18T21:28:14.932Z,94.40
2017-09-18T21:30:42.443Z,94.30
2017-09-18T21:33:09.963Z,94.30
2017-09-18T21:35:38.680Z,94.20
2017-09-18T21:38:06.179Z,94.20
2017-09-18T21:40:34.491Z,94.10
2017-09-18T21:43:02.024Z,94.10
2017-09-18T21:45:31.203Z,94.10
2017-09-18T21:48:03.306Z,94.10
2017-09-18T21:50:30.896Z,94.00
2017-09-18T21:52:58.483Z,94.00
2017-09-18T21:55:25.983Z,94.00
2017-09-18T21:57:53.537Z,94.10
2017-09-18T22:00:21.936Z,94.00
2017-09-18T22:02:50.360Z,93.90
2017-09-18T22:05:22.269Z,93.90
2017-09-18T22:07:49.783Z,94.00
2017-09-18T22:10:17.485Z,94.10
2017-09-18T22:12:45.136Z,94.00
2017-09-18T22:15:12.676Z,93.90
2017-09-18T22:17:40.354Z,93.90
2017-09-18T22:20:07.855Z,94.00
2017-09-18T22:22:35.361Z,93.90
2017-09-18T22:25:02.935Z,93.80
2017-09-18T22:27:31.238Z,93.80
2017-09-18T22:29:59.305Z,93.80
2017-09-18T22:32:27.010Z,93.70
2017-09-18T22:34:59.151Z,93.60
2017-09-18T22:37:26.664Z,93.60
2017-09-18T22:39:54.992Z,93.50
2017-09-18T22:42:22.532Z,93.50
2017-09-18T22:44:50.028Z,93.40
2017-09-18T22:47:18.482Z,93.30
2017-09-18T22:49:50.091Z,93.20
2017-09-18T22:52:19.324Z,93.30
2017-09-18T22:54:46.826Z,93.20
2017-09-18T22:57:14.358Z,93.20
2017-09-18T22:59:42.315Z,93.20
2017-09-18T23:02:09.852Z,93.20
2017-09-18T23:04:37.843Z,93.30
2017-09-18T23:07:05.332Z,93.30
2017-09-18T23:09:33.386Z,93.40
2017-09-18T23:12:00.884Z,93.40
2017-09-18T23:14:29.184Z,93.40
2017-09-18T23:16:56.738Z,93.40
2017-09-18T23:19:27.455Z,93.60
2017-09-18T23:21:55.756Z,93.60
2017-09-18T23:24:23.626Z,93.60
2017-09-18T23:26:51.906Z,93.50
2017-09-18T23:29:19.461Z,93.60
2017-09-18T23:31:47.030Z,93.60
2017-09-18T23:34:14.735Z,93.60
2017-09-18T23:36:42.283Z,93.60
2017-09-18T23:39:09.783Z,93.60
2017-09-18T23:41:37.280Z,93.60
2017-09-18T23:44:05.687Z,93.60
2017-09-18T23:46:33.179Z,93.50
2017-09-18T23:49:00.951Z,93.50
2017-09-18T23:51:28.504Z,93.60
2017-09-18T23:53:56.004Z,93.60
2017-09-18T23:56:25.193Z,93.50
2017-09-18T23:58:52.763Z,93.60
